Time;durP1;ratioP1;P1;durP2;ratioP2;P2;SDS_P1;SDS_P2;PMS_P1;PMS_P2;Temp;Humidity;BMP_temperature;BMP_pressure;BME280_temperature;BME280_humidity;BME280_pressure;Samples;Min_cycle;Max_cycle;Signal;HPM_P1;HPM_P2
2023/05/05 00:00:58;;;;;;;4.60;2.50;;;;;;;14.69;29.63;95501.56;4893012;28;20051;-73
2023/05/05 00:03:24;;;;;;;3.13;2.30;;;;;;;14.71;29.88;95506.72;4907930;29;20074;-73
2023/05/05 00:05:50;;;;;;;4.32;3.10;;;;;;;14.71;29.39;95506.72;4940948;28;20063;-73
2023/05/05 00:08:16;;;;;;;4.47;2.70;;;;;;;14.72;29.20;95503.84;4941977;28;20031;-72
2023/05/05 00:10:44;;;;;;;4.85;2.80;;;;;;;14.68;29.17;95504.47;4908126;28;20320;-72
2023/05/05 00:13:09;;;;;;;3.28;2.50;;;;;;;14.77;29.16;95505.09;4928449;29;20107;-73
2023/05/05 00:15:35;;;;;;;3.60;2.88;;;;;;;;;;4908986;29;20038;-72
2023/05/05 00:18:00;;;;;;;7.75;2.90;;;;;;;14.85;29.03;95494.16;4942493;28;20039;-72
2023/05/05 00:20:26;;;;;;;4.78;2.88;;;;;;;14.91;29.10;95493.34;4924050;29;20038;-73
2023/05/05 00:22:51;;;;;;;6.80;3.10;;;;;;;14.92;29.11;95495.00;4941534;28;20532;-73
2023/05/05 00:25:17;;;;;;;5.07;3.40;;;;;;;14.91;29.32;95495.19;4923280;29;20378;-73
2023/05/05 00:27:42;;;;;;;5.60;3.10;;;;;;;14.79;29.17;95486.97;4941664;28;20278;-73
2023/05/05 00:30:08;;;;;;;3.88;2.60;;;;;;;14.49;30.28;95485.53;4923105;29;20428;-73
2023/05/05 00:32:33;;;;;;;4.85;2.80;;;;;;;14.36;30.77;95481.00;4924443;29;20043;-72
2023/05/05 00:34:59;;;;;;;4.93;2.85;;;;;;;14.21;31.15;95481.16;4924744;29;20520;-73
2023/05/05 00:37:24;;;;;;;4.60;2.88;;;;;;;14.12;31.27;95479.72;4940743;28;20039;-72
2023/05/05 00:39:49;;;;;;;5.72;3.78;;;;;;;13.99;31.27;95481.38;4941007;28;20062;-72
2023/05/05 00:42:15;;;;;;;4.50;3.47;;;;;;;14.03;30.84;95476.41;4940512;28;20086;-72
2023/05/05 00:44:41;;;;;;;6.63;2.88;;;;;;;13.94;31.03;95479.28;4906688;29;20078;-72
2023/05/05 00:47:12;;;;;;;4.38;3.40;;;;;;;13.91;31.28;95470.84;4910300;29;20015;-73
2023/05/05 00:49:38;;;;;;;5.13;3.40;;;;;;;13.88;31.01;95481.91;4905008;29;20556;-72
2023/05/05 00:52:03;;;;;;;7.30;3.20;;;;;;;13.90;31.67;95478.03;4908410;29;20086;-73
2023/05/05 00:54:29;;;;;;;5.80;4.25;;;;;;;13.92;31.47;95475.16;4923028;29;20520;-73
2023/05/05 00:56:54;;;;;;;6.35;3.25;;;;;;;14.05;30.98;95467.16;4940567;28;20031;-72
2023/05/05 00:59:20;;;;;;;5.32;3.42;;;;;;;14.06;31.25;95466.13;4940701;29;20049;-72
2023/05/05 01:01:45;;;;;;;5.63;3.10;;;;;;;13.91;31.64;95462.81;4967823;23;20029;-80
2023/05/05 01:04:11;;;;;;;8.00;4.50;;;;;;;13.86;31.18;95467.91;4970349;28;20154;-80
2023/05/05 01:06:48;;;;;;;4.05;3.42;;;;;;;13.72;31.71;95462.53;4957086;28;20043;-79
2023/05/05 01:09:20;;;;;;;;;;;;;;;13.61;31.64;95465.78;4948880;28;20037;-80
2023/05/05 01:11:53;;;;;;;6.63;3.92;;;;;;;13.65;31.33;95461.69;4975672;28;20015;-80
2023/05/05 01:14:24;;;;;;;7.95;3.30;;;;;;;13.62;31.13;95465.59;4954545;28;20198;-80
2023/05/05 01:16:57;;;;;;;5.18;3.33;;;;;;;13.70;31.01;95468.09;4942614;28;20061;-80
2023/05/05 01:19:44;;;;;;;6.53;3.58;;;;;;;13.67;30.72;95465.00;4956679;28;20640;-80
2023/05/05 01:22:11;;;;;;;5.03;2.88;;;;;;;13.74;30.77;95462.34;4958803;28;20083;-80
2023/05/05 01:24:58;;;;;;;4.90;2.83;;;;;;;13.74;30.06;95465.00;4955813;28;20034;-79
2023/05/05 01:27:33;;;;;;;5.90;3.13;;;;;;;13.89;29.58;95463.03;4971068;28;20134;-80
2023/05/05 01:30:25;;;;;;;5.00;2.92;;;;;;;13.90;30.29;95453.16;4957226;28;20285;-80
2023/05/05 01:32:53;;;;;;;3.60;2.50;;;;;;;13.95;29.90;95464.06;4957470;28;20037;-80
2023/05/05 01:35:55;;;;;;;4.35;2.90;;;;;;;13.72;30.80;95465.22;4955970;28;20100;-80
2023/05/05 01:38:22;;;;;;;5.97;3.60;;;;;;;13.62;31.14;95462.09;4943060;28;20047;-80
2023/05/05 01:40:52;;;;;;;6.25;3.45;;;;;;;13.29;31.14;95466.28;4941443;28;20041;-79
2023/05/05 01:43:18;;;;;;;5.28;2.97;;;;;;;13.17;31.64;95464.22;4960099;28;20105;-80
2023/05/05 01:45:44;;;;;;;4.43;2.92;;;;;;;12.97;31.85;95460.56;4941203;28;20476;-80
2023/05/05 01:48:11;;;;;;;7.65;3.85;;;;;;;13.12;31.71;95461.28;4959859;28;20032;-80
2023/05/05 01:50:36;;;;;;;3.67;3.10;;;;;;;13.22;31.42;95454.75;4958223;28;20748;-80
2023/05/05 01:53:02;;;;;;;4.45;2.90;;;;;;;13.18;31.57;95460.50;4923496;28;20058;-80
2023/05/05 01:55:28;;;;;;;3.67;2.60;;;;;;;13.36;31.52;95461.78;4958474;28;20081;-80
2023/05/05 01:57:53;;;;;;;5.35;2.63;;;;;;;13.61;30.45;95466.63;4940646;28;20046;-80
2023/05/05 02:00:18;;;;;;;5.50;3.15;;;;;;;13.68;30.08;95462.13;4942605;28;20038;-80
2023/05/05 02:02:45;;;;;;;3.72;3.15;;;;;;;13.55;30.77;95465.59;4957046;28;20200;-80
2023/05/05 02:05:10;;;;;;;6.72;3.60;;;;;;;13.51;31.07;95480.38;4941245;28;20043;-80
2023/05/05 02:07:36;;;;;;;8.95;3.10;;;;;;;13.62;30.25;95481.66;4938693;28;20134;-80
2023/05/05 02:10:01;;;;;;;5.30;2.70;;;;;;;13.80;29.94;95477.56;4956504;28;20066;-80
2023/05/05 02:12:27;;;;;;;3.83;2.63;;;;;;;13.87;29.64;95483.75;4926890;28;20034;-80
2023/05/05 02:14:52;;;;;;;3.30;2.63;;;;;;;13.94;29.52;95481.97;4940960;28;20273;-80
2023/05/05 02:17:18;;;;;;;3.83;2.63;;;;;;;13.90;29.80;95478.03;4940794;28;20043;-80
2023/05/05 02:19:44;;;;;;;5.53;3.00;;;;;;;13.83;30.15;95477.16;4959198;28;20121;-80
2023/05/05 02:22:15;;;;;;;4.90;2.80;;;;;;;13.82;30.20;95478.19;4940262;28;20046;-80
2023/05/05 02:24:40;;;;;;;6.20;2.58;;;;;;;13.96;29.93;95484.44;4959004;28;20465;-79
2023/05/05 02:27:06;;;;;;;4.65;2.70;;;;;;;14.01;29.87;95484.66;4958294;28;20026;-80
2023/05/05 02:29:35;;;;;;;4.00;2.80;;;;;;;14.08;30.05;95482.00;4955928;28;20622;-80
2023/05/05 02:32:04;;;;;;;2.95;2.60;;;;;;;14.02;30.32;95480.97;4919308;28;20121;-80
2023/05/05 02:34:29;;;;;;;5.15;3.00;;;;;;;13.95;30.10;95482.78;4923859;28;20077;-80
2023/05/05 02:36:56;;;;;;;4.43;2.80;;;;;;;13.85;30.22;95485.84;4939612;28;20411;-80
2023/05/05 02:39:34;;;;;;;2.70;2.50;;;;;;;13.72;30.67;95486.63;4943368;28;20030;-80
2023/05/05 02:42:01;;;;;;;2.80;2.58;;;;;;;13.59;31.88;95481.25;4941895;28;20133;-80
2023/05/05 02:44:27;;;;;;;3.83;2.63;;;;;;;13.31;32.81;95483.81;4958362;28;20030;-80
2023/05/05 02:46:52;;;;;;;4.25;2.80;;;;;;;13.12;32.29;95484.53;4954105;28;20034;-80
2023/05/05 02:49:18;;;;;;;3.83;2.50;;;;;;;13.10;32.05;95481.22;4938339;28;20515;-80
2023/05/05 02:51:43;;;;;;;6.18;2.83;;;;;;;13.04;32.01;95482.81;4938733;28;20472;-80
2023/05/05 02:54:09;;;;;;;3.95;3.17;;;;;;;12.91;32.05;95491.56;4939116;28;20046;-80
2023/05/05 02:56:46;;;;;;;4.95;3.35;;;;;;;12.76;32.42;95483.66;4953598;28;20041;-79
2023/05/05 02:59:18;;;;;;;7.85;4.10;;;;;;;12.59;32.83;95483.97;4955161;28;20162;-80
2023/05/05 03:01:52;;;;;;;7.53;4.13;;;;;;;12.42;33.25;95484.22;4934803;28;20043;-80
2023/05/05 03:04:24;;;;;;;7.28;4.60;;;;;;;12.32;33.05;95489.09;4971416;28;20092;-80
2023/05/05 03:06:50;;;;;;;9.18;4.07;;;;;;;12.50;32.87;95490.44;4916530;28;20801;-80
2023/05/05 03:09:21;;;;;;;6.10;3.40;;;;;;;12.57;32.35;95490.53;4955635;28;20034;-80
2023/05/05 03:12:02;;;;;;;6.45;3.80;;;;;;;12.46;32.71;95494.53;4938988;28;20053;-80
2023/05/05 03:14:29;;;;;;;4.90;3.22;;;;;;;12.33;32.67;95492.56;4940433;28;20058;-80
2023/05/05 03:16:55;;;;;;;5.80;3.20;;;;;;;12.34;32.59;95499.56;4937862;28;20064;-80
2023/05/05 03:19:20;;;;;;;6.25;3.28;;;;;;;12.20;33.32;95495.97;4938858;28;20050;-80
2023/05/05 03:21:46;;;;;;;4.63;3.15;;;;;;;11.95;33.91;95497.13;4953311;28;20066;-80
2023/05/05 03:24:14;;;;;;;5.97;3.63;;;;;;;11.71;34.73;95499.13;4940228;28;20031;-80
2023/05/05 03:26:39;;;;;;;5.43;3.47;;;;;;;11.66;34.76;95496.19;4955510;28;20141;-81
2023/05/05 03:29:05;;;;;;;5.18;3.40;;;;;;;11.62;34.68;95495.75;4939188;28;20574;-80
2023/05/05 03:31:31;;;;;;;4.00;2.97;;;;;;;11.56;35.05;95495.69;4955252;28;20030;-80
2023/05/05 03:33:56;;;;;;;7.45;3.20;;;;;;;11.43;35.42;95491.00;4936150;28;20038;-81
2023/05/05 03:36:22;;;;;;;5.53;3.35;;;;;;;11.42;34.96;95494.69;4940281;28;20614;-81
2023/05/05 03:38:47;;;;;;;11.93;3.28;;;;;;;11.36;35.65;95491.75;4956754;28;20104;-81
2023/05/05 03:41:12;;;;;;;5.45;3.70;;;;;;;11.15;36.17;95497.03;4955044;28;20046;-81
2023/05/05 03:43:38;;;;;;;5.20;3.42;;;;;;;11.07;35.49;95488.06;4954874;28;20043;-81
2023/05/05 03:46:04;;;;;;;6.88;3.15;;;;;;;11.08;35.69;95491.56;4954219;28;20047;-81
2023/05/05 03:48:29;;;;;;;5.28;3.92;;;;;;;10.97;36.41;95499.00;4939405;28;20045;-81
2023/05/05 03:50:55;;;;;;;5.55;3.90;;;;;;;10.78;37.12;95497.69;4938103;28;20515;-81
2023/05/05 03:53:21;;;;;;;5.35;3.83;;;;;;;10.67;37.38;95498.16;4956358;28;20135;-81
2023/05/05 03:55:46;;;;;;;5.20;3.47;;;;;;;10.77;36.77;95506.69;4972219;28;20067;-81
2023/05/05 03:58:11;;;;;;;7.82;3.33;;;;;;;11.03;36.55;95513.44;4969676;28;20060;-81
2023/05/05 04:00:39;;;;;;;6.30;3.30;;;;;;;11.29;35.99;95501.50;4935646;28;20057;-80
2023/05/05 04:03:05;;;;;;;6.80;3.50;;;;;;;11.54;36.01;95509.19;4971078;28;20062;-80
2023/05/05 04:05:30;;;;;;;5.10;3.30;;;;;;;11.66;36.68;95506.84;4970773;28;20376;-81
2023/05/05 04:07:57;;;;;;;6.07;3.10;;;;;;;11.75;35.99;95511.06;4956436;28;20192;-81
2023/05/05 04:10:22;;;;;;;5.22;3.08;;;;;;;11.95;35.79;95514.97;4938103;28;20536;-81
2023/05/05 04:12:47;;;;;;;5.30;3.03;;;;;;;12.06;35.96;95510.97;4921957;28;20050;-80
2023/05/05 04:15:13;;;;;;;4.25;3.03;;;;;;;12.18;35.82;95516.66;4971618;28;20038;-81
2023/05/05 04:17:38;;;;;;;5.43;2.85;;;;;;;12.26;36.92;95517.38;4971636;28;20030;-81
2023/05/05 04:20:05;;;;;;;8.70;3.30;;;;;;;12.37;36.59;95516.03;4937137;28;20030;-81
2023/05/05 04:22:31;;;;;;;3.95;3.17;;;;;;;12.46;36.00;95516.72;4954049;28;20545;-81
2023/05/05 04:24:56;;;;;;;5.22;3.60;;;;;;;12.52;35.68;95504.44;4971309;28;20035;-80
2023/05/05 04:27:22;;;;;;;6.75;3.40;;;;;;;12.54;36.00;95510.41;4973314;28;20034;-80
2023/05/05 04:29:47;;;;;;;7.40;3.30;;;;;;;12.60;35.97;95504.28;4967789;28;20136;-80
2023/05/05 04:32:12;;;;;;;5.18;3.50;;;;;;;12.66;35.24;95506.22;4956980;28;20045;-81
2023/05/05 04:34:38;;;;;;;4.75;3.30;;;;;;;12.71;35.59;95504.78;4934533;28;20108;-80
2023/05/05 04:37:03;;;;;;;4.90;3.55;;;;;;;12.77;35.40;95512.00;4950283;28;20030;-80
2023/05/05 04:39:29;;;;;;;6.45;3.58;;;;;;;12.86;35.63;95513.53;4951609;28;20447;-81
2023/05/05 04:41:54;;;;;;;4.30;3.42;;;;;;;12.90;35.26;95517.47;4919690;28;20423;-81
2023/05/05 04:44:20;;;;;;;8.50;5.20;;;;;;;12.93;35.72;95517.06;4967644;28;20050;-81
2023/05/05 04:46:45;;;;;;;9.63;5.32;;;;;;;12.91;35.66;95519.09;4956037;28;20094;-81
2023/05/05 04:49:10;;;;;;;13.30;6.47;;;;;;;12.89;35.40;95515.78;4970148;28;20042;-81
2023/05/05 04:51:41;;;;;;;12.68;7.63;;;;;;;12.92;35.17;95510.06;4973646;28;20035;-81
2023/05/05 04:54:06;;;;;;;16.08;9.15;;;;;;;13.01;35.25;95516.13;4939887;28;20497;-81
2023/05/05 04:56:32;;;;;;;17.45;8.52;;;;;;;12.96;35.43;95513.19;4956268;28;20244;-81
2023/05/05 04:58:57;;;;;;;19.08;8.13;;;;;;;12.87;35.70;95517.00;4953691;28;20423;-81
2023/05/05 05:01:22;;;;;;;12.10;6.72;;;;;;;12.78;36.21;95513.66;4939023;28;20047;-81
2023/05/05 05:03:48;;;;;;;12.32;6.80;;;;;;;12.88;36.05;95514.16;4955327;28;20209;-81
2023/05/05 05:06:13;;;;;;;10.48;6.32;;;;;;;12.94;36.63;95512.53;4954437;28;20527;-81
2023/05/05 05:08:39;;;;;;;9.05;5.07;;;;;;;13.02;36.47;95514.28;4923726;28;20097;-79
2023/05/05 05:11:05;;;;;;;8.38;4.57;;;;;;;13.29;37.09;95525.09;4955505;28;20035;-81
2023/05/05 05:13:33;;;;;;;5.53;3.70;;;;;;;13.60;39.23;95521.13;4955005;28;20144;-80
2023/05/05 05:15:59;;;;;;;8.13;4.07;;;;;;;13.53;39.76;95522.97;4938977;28;20627;-81
2023/05/05 05:18:25;;;;;;;5.20;3.85;;;;;;;13.71;40.73;95527.78;4973201;28;20449;-81
2023/05/05 05:20:50;;;;;;;8.48;3.67;;;;;;;13.91;40.77;95527.03;4955241;28;20042;-80
2023/05/05 05:23:15;;;;;;;5.07;3.70;;;;;;;14.17;40.41;95531.63;4973525;28;20068;-80
2023/05/05 05:25:41;;;;;;;7.32;4.00;;;;;;;14.19;40.40;95534.09;4938519;28;20058;-82
2023/05/05 05:28:06;;;;;;;6.70;4.25;;;;;;;14.10;40.56;95528.09;4939583;28;20095;-81
2023/05/05 05:30:32;;;;;;;6.68;4.07;;;;;;;13.63;41.62;95535.97;4970894;28;20058;-81
2023/05/05 05:32:57;;;;;;;5.68;4.05;;;;;;;13.73;42.14;95535.59;4954171;28;20179;-81
2023/05/05 05:35:23;;;;;;;5.78;4.28;;;;;;;13.51;42.46;95546.41;4956008;28;20061;-81
2023/05/05 05:37:49;;;;;;;8.25;4.28;;;;;;;13.68;42.08;95545.06;4939648;28;20045;-81
2023/05/05 05:40:15;;;;;;;8.10;4.50;;;;;;;13.74;43.31;95540.75;4957407;28;20084;-81
2023/05/05 05:42:40;;;;;;;5.47;4.57;;;;;;;13.62;43.44;95550.34;4972791;28;20043;-82
2023/05/05 05:45:07;;;;;;;6.35;4.60;;;;;;;13.58;43.21;95555.28;4956024;28;20035;-82
2023/05/05 05:47:32;;;;;;;8.35;4.47;;;;;;;13.51;43.33;95554.44;4955248;28;20042;-83
2023/05/05 05:49:57;;;;;;;9.38;4.60;;;;;;;14.00;42.76;95557.13;4925012;28;20038;-82
2023/05/05 05:52:23;;;;;;;11.15;4.65;;;;;;;13.79;43.62;95556.19;4956820;28;20041;-82
2023/05/05 05:54:48;;;;;;;9.23;4.00;;;;;;;13.49;43.90;95562.66;4973948;28;20049;-82
2023/05/05 05:57:14;;;;;;;6.65;4.80;;;;;;;13.37;45.95;95564.22;4971778;28;20038;-83
2023/05/05 05:59:39;;;;;;;7.93;5.05;;;;;;;13.45;45.00;95566.75;4971266;28;20048;-82
2023/05/05 06:02:05;;;;;;;6.35;4.75;;;;;;;13.73;43.72;95563.16;4938824;28;20050;-82
2023/05/05 06:04:30;;;;;;;6.70;4.53;;;;;;;13.55;45.03;95561.88;4970897;28;20030;-82
2023/05/05 06:06:56;;;;;;;7.13;4.22;;;;;;;13.81;44.63;95563.00;4970052;28;20057;-82
2023/05/05 06:09:21;;;;;;;8.02;4.05;;;;;;;14.07;43.43;95560.63;4957750;28;20555;-82
2023/05/05 06:11:47;;;;;;;6.70;4.40;;;;;;;14.41;42.72;95550.81;4957075;28;20502;-82
2023/05/05 06:14:12;;;;;;;9.48;4.68;;;;;;;14.44;42.62;95550.41;4925660;28;20041;-82
2023/05/05 06:16:37;;;;;;;7.22;4.68;;;;;;;15.10;41.52;95544.47;4972872;28;20497;-81
2023/05/05 06:19:08;;;;;;;7.20;4.50;;;;;;;15.01;42.14;95551.06;4941479;28;20018;-82
2023/05/05 06:21:34;;;;;;;7.47;4.78;;;;;;;15.31;41.45;95550.59;4971387;28;20049;-83
2023/05/05 06:23:59;;;;;;;6.93;4.15;;;;;;;14.30;43.12;95568.31;4940468;28;20344;-83
2023/05/05 06:26:25;;;;;;;8.93;4.40;;;;;;;14.59;43.10;95566.28;4936295;28;20248;-83
2023/05/05 06:28:50;;;;;;;5.47;3.88;;;;;;;14.82;42.74;95554.38;4955618;28;20097;-82
2023/05/05 06:31:16;;;;;;;9.00;5.10;;;;;;;14.60;43.25;95559.09;4955393;28;20038;-82
2023/05/05 06:33:41;;;;;;;9.57;5.30;;;;;;;14.61;43.18;95550.00;4952789;28;20039;-82
2023/05/05 06:36:07;;;;;;;5.97;4.63;;;;;;;14.98;42.22;95552.31;4950808;28;20058;-82
2023/05/05 06:38:32;;;;;;;8.27;5.05;;;;;;;14.82;42.82;95558.94;4937112;28;20482;-82
2023/05/05 06:40:58;;;;;;;9.88;4.95;;;;;;;14.77;43.45;95561.38;4952594;28;20042;-82
2023/05/05 06:43:23;;;;;;;7.65;4.78;;;;;;;14.28;44.06;95569.56;4955968;28;20043;-82
2023/05/05 06:45:49;;;;;;;8.18;5.10;;;;;;;14.24;43.96;95569.13;4970816;28;20030;-82
2023/05/05 06:48:14;;;;;;;8.05;5.00;;;;;;;14.28;43.95;95572.22;4970824;28;20046;-83
2023/05/05 06:50:40;;;;;;;6.97;4.90;;;;;;;13.73;45.69;95571.19;4955935;28;20471;-82
2023/05/05 06:53:05;;;;;;;9.32;5.35;;;;;;;14.44;44.15;95571.84;4972024;28;20597;-83
2023/05/05 06:55:30;;;;;;;7.78;5.20;;;;;;;14.54;44.71;95579.47;4973035;28;20030;-83
2023/05/05 06:57:56;;;;;;;9.82;5.65;;;;;;;14.09;45.50;95582.69;4970655;28;20049;-83
2023/05/05 07:00:21;;;;;;;12.05;5.10;;;;;;;13.86;46.25;95582.97;4955416;28;20545;-83
2023/05/05 07:02:47;;;;;;;7.90;5.65;;;;;;;13.55;47.20;95574.41;4970428;28;20201;-82
2023/05/05 07:05:12;;;;;;;10.15;5.60;;;;;;;14.20;45.50;95576.75;4955616;28;20034;-82
2023/05/05 07:07:40;;;;;;;8.77;6.13;;;;;;;14.49;45.15;95571.25;4939598;28;20287;-82
2023/05/05 07:10:06;;;;;;;11.57;5.60;;;;;;;14.63;44.41;95579.28;4959187;28;20038;-82
2023/05/05 07:12:31;;;;;;;9.85;5.97;;;;;;;14.33;45.33;95575.94;4962014;28;20360;-66
2023/05/05 07:14:56;;;;;;;7.45;5.78;;;;;;;14.51;44.82;95576.41;4965243;28;20050;-66
2023/05/05 07:17:22;;;;;;;10.95;6.20;;;;;;;15.02;43.75;95574.16;4964251;28;20042;-65
2023/05/05 07:19:47;;;;;;;9.02;5.70;;;;;;;15.36;42.90;95566.88;4951633;28;20062;-66
2023/05/05 07:22:13;;;;;;;9.07;6.13;;;;;;;14.13;45.02;95575.91;4963328;28;20092;-66
2023/05/05 07:24:38;;;;;;;7.85;5.55;;;;;;;15.45;43.24;95578.22;4965116;28;20475;-66
2023/05/05 07:27:03;;;;;;;7.43;5.53;;;;;;;15.13;43.45;95581.56;4957029;28;20035;-66
2023/05/05 07:29:29;;;;;;;8.38;5.60;;;;;;;14.90;43.70;95590.88;4967167;28;20593;-66
2023/05/05 07:31:55;;;;;;;9.00;5.60;;;;;;;14.85;44.12;95590.66;4962686;28;20023;-66
2023/05/05 07:34:20;;;;;;;8.57;5.32;;;;;;;14.50;44.53;95596.16;4965909;28;20035;-66
2023/05/05 07:36:45;;;;;;;9.70;5.90;;;;;;;14.75;44.18;95595.63;4966556;28;20128;-65
2023/05/05 07:39:13;;;;;;;8.10;5.85;;;;;;;15.41;42.86;95585.88;4966129;28;20089;-66
2023/05/05 07:41:39;;;;;;;;;;;;;;;15.63;42.20;95582.94;4967602;28;20046;-66
2023/05/05 07:44:04;;;;;;;9.77;4.87;;;;;;;15.47;43.13;95593.06;4963935;28;19929;-66
2023/05/05 07:46:29;;;;;;;8.02;5.38;;;;;;;15.97;41.95;95585.50;4967152;28;20043;-66
2023/05/05 07:48:55;;;;;;;11.85;5.60;;;;;;;15.90;42.94;95582.03;4951645;28;20188;-65
2023/05/05 07:51:20;;;;;;;11.60;6.35;;;;;;;15.91;42.40;95579.13;4967078;28;20285;-66
2023/05/05 07:53:46;;;;;;;10.05;6.35;;;;;;;16.76;40.75;95576.41;4959492;28;20482;-66
2023/05/05 07:56:11;;;;;;;8.52;6.13;;;;;;;16.00;41.86;95579.69;4970340;28;20084;-66
2023/05/05 07:58:37;;;;;;;7.18;5.28;;;;;;;16.72;40.94;95588.59;4961279;28;20105;-66
2023/05/05 08:01:05;;;;;;;7.68;5.60;;;;;;;16.90;40.37;95583.28;4967814;28;20050;-66
2023/05/05 08:03:31;;;;;;;8.15;5.55;;;;;;;16.15;41.72;95592.03;4950852;28;20101;-66
2023/05/05 08:05:58;;;;;;;9.82;6.03;;;;;;;16.15;43.21;95587.50;4965487;28;20050;-66
2023/05/05 08:08:25;;;;;;;10.35;6.30;;;;;;;16.29;41.76;95590.09;4934289;28;20035;-66
2023/05/05 08:10:51;;;;;;;9.93;6.37;;;;;;;16.74;40.62;95591.91;4966078;28;20061;-66
2023/05/05 08:13:17;;;;;;;7.47;5.30;;;;;;;16.58;41.68;95588.72;4968658;28;20510;-66
2023/05/05 08:15:43;;;;;;;10.82;6.18;;;;;;;15.49;43.04;95591.00;4966563;28;20031;-66
2023/05/05 08:18:09;;;;;;;9.23;5.75;;;;;;;15.68;42.15;95591.19;4960758;28;20433;-66
2023/05/05 08:20:34;;;;;;;10.32;5.75;;;;;;;15.04;44.21;95601.59;4949798;28;20031;-66
2023/05/05 08:23:00;;;;;;;11.18;5.22;;;;;;;16.91;39.81;95594.88;4967381;28;20038;-66
2023/05/05 08:25:25;;;;;;;9.65;5.65;;;;;;;16.92;39.52;95593.84;4969142;28;20046;-66
2023/05/05 08:27:51;;;;;;;7.22;5.38;;;;;;;17.32;38.87;95594.53;4965635;28;20586;-66
2023/05/05 08:30:19;;;;;;;7.10;5.00;;;;;;;18.16;37.57;95595.94;4970835;28;20541;-66
2023/05/05 08:32:45;;;;;;;7.63;5.15;;;;;;;18.20;37.38;95594.41;4963744;28;20042;-66
2023/05/05 08:35:11;;;;;;;8.02;5.25;;;;;;;18.18;37.16;95596.50;4965946;28;20026;-66
2023/05/05 08:37:36;;;;;;;7.43;5.60;;;;;;;18.54;36.68;95592.09;4964462;28;20768;-66
2023/05/05 08:40:02;;;;;;;6.38;5.15;;;;;;;19.04;35.78;95591.97;4967427;28;20483;-66
2023/05/05 08:42:28;;;;;;;8.07;5.40;;;;;;;18.43;36.36;95590.19;4971905;28;20491;-65
2023/05/05 08:44:53;;;;;;;7.07;5.15;;;;;;;18.63;37.24;95597.19;4957830;28;20038;-66
2023/05/05 08:47:19;;;;;;;10.23;7.07;;;;;;;18.66;36.21;95597.53;4974412;28;20155;-65
2023/05/05 08:49:45;;;;;;;10.82;4.82;;;;;;;18.93;35.37;95593.59;4956856;28;20515;-66
2023/05/05 08:52:13;;;;;;;7.78;4.72;;;;;;;18.33;37.42;95600.69;4971933;28;20491;-66
2023/05/05 08:54:38;;;;;;;;;;;;;;;18.67;36.21;95604.56;4951874;28;20443;-66
2023/05/05 08:57:03;;;;;;;6.93;4.73;;;;;;;19.02;35.45;95600.31;4970327;28;19954;-65
2023/05/05 08:59:30;;;;;;;6.65;4.95;;;;;;;19.09;35.92;95589.41;4971353;28;20475;-66
2023/05/05 09:01:56;;;;;;;6.63;4.57;;;;;;;18.23;36.71;95598.53;4930123;28;20410;-65
2023/05/05 09:04:25;;;;;;;9.85;5.80;;;;;;;17.41;38.65;95591.34;4963229;28;20058;-66
2023/05/05 09:06:51;;;;;;;8.32;5.70;;;;;;;17.80;39.27;95591.16;4970582;28;20750;-65
2023/05/05 09:09:16;;;;;;;13.32;6.15;;;;;;;17.53;38.75;95591.44;4974361;28;20034;-65
2023/05/05 09:11:41;;;;;;;8.38;5.85;;;;;;;17.31;37.80;95590.22;4952567;28;20027;-66
2023/05/05 09:14:07;;;;;;;14.65;10.88;;;;;;;17.05;38.48;95592.91;4953273;28;20354;-66
2023/05/05 09:16:32;;;;;;;8.50;5.03;;;;;;;17.78;37.56;95597.81;4964164;28;20403;-66
2023/05/05 09:19:02;;;;;;;7.13;4.60;;;;;;;18.74;36.75;95592.88;4965963;28;20146;-66
2023/05/05 09:21:28;;;;;;;7.72;4.78;;;;;;;18.65;36.61;95603.16;4944590;28;20060;-65
2023/05/05 09:24:12;;;;;;;7.82;4.30;;;;;;;18.99;34.91;95600.75;4968102;28;20531;-66
2023/05/05 09:26:39;;;;;;;11.27;4.20;;;;;;;17.52;36.41;95600.56;4955873;28;20061;-66
2023/05/05 09:29:05;;;;;;;6.18;3.95;;;;;;;19.35;34.58;95595.44;4951276;28;20039;-65
2023/05/05 09:31:30;;;;;;;6.72;4.30;;;;;;;20.03;33.80;95588.78;4967526;28;20045;-66
2023/05/05 09:33:59;;;;;;;9.75;5.53;;;;;;;19.82;31.96;95586.44;4963655;28;20042;-66
2023/05/05 09:36:48;;;;;;;6.72;3.63;;;;;;;19.50;32.32;95594.09;4966929;28;20057;-66
2023/05/05 09:39:18;;;;;;;6.95;3.97;;;;;;;20.26;31.94;95587.84;4970298;28;20046;-66
2023/05/05 09:41:43;;;;;;;5.50;3.75;;;;;;;20.22;31.91;95592.09;4969162;28;20251;-66
2023/05/05 09:44:09;;;;;;;9.25;3.67;;;;;;;20.36;31.65;95584.53;4973908;28;20555;-66
2023/05/05 09:46:35;;;;;;;4.65;2.90;;;;;;;19.43;31.77;95575.34;4972737;28;20045;-66
2023/05/05 09:49:18;;;;;;;7.60;2.40;;;;;;;19.49;30.59;95578.97;4973606;28;20034;-65
2023/05/05 09:51:44;;;;;;;6.15;3.25;;;;;;;18.87;33.16;95581.84;4963079;28;20057;-82
2023/05/05 09:54:23;;;;;;;4.72;2.95;;;;;;;20.52;31.34;95573.97;4934226;28;20038;-82
2023/05/05 09:56:49;;;;;;;4.82;3.10;;;;;;;20.44;30.71;95572.50;4929000;28;20135;-82
2023/05/05 09:59:15;;;;;;;4.25;2.67;;;;;;;21.02;30.15;95575.13;4954398;28;20040;-83
2023/05/05 10:01:42;;;;;;;2.97;1.88;;;;;;;20.07;29.17;95579.94;4954190;28;20876;-83
2023/05/05 10:04:07;;;;;;;;;;;;;;;18.57;31.66;95577.31;4954138;28;20038;-82
2023/05/05 10:06:43;;;;;;;4.03;1.90;;;;;;;19.40;29.08;95575.81;4951547;28;19922;-82
2023/05/05 10:09:11;;;;;;;2.00;1.52;;;;;;;20.44;27.88;95581.44;4922620;28;20496;-82
2023/05/05 10:11:36;;;;;;;5.20;2.15;;;;;;;19.89;29.55;95580.91;4936096;28;20110;-84
2023/05/05 10:14:03;;;;;;;3.22;2.05;;;;;;;19.60;31.13;95586.25;4936901;28;20034;-82
2023/05/05 10:16:28;;;;;;;2.47;1.70;;;;;;;19.95;31.52;95584.50;4917566;28;20033;-83
2023/05/05 10:18:54;;;;;;;4.53;2.20;;;;;;;18.60;31.66;95581.47;4916771;28;20263;-68
2023/05/05 10:21:20;;;;;;;3.78;2.10;;;;;;;16.94;33.41;95597.13;4953630;28;20049;-68
2023/05/05 10:23:54;;;;;;;7.50;3.53;;;;;;;18.96;31.40;95593.13;4967217;28;20030;-68
2023/05/05 10:26:20;;;;;;;8.02;2.67;;;;;;;18.43;31.22;95592.88;4960081;28;20333;-67
2023/05/05 10:28:54;;;;;;;4.97;2.60;;;;;;;19.66;29.30;95593.41;4950221;28;20042;-67
2023/05/05 10:31:20;;;;;;;4.75;2.45;;;;;;;18.73;31.46;95592.03;4966507;28;20019;-66
2023/05/05 10:33:51;;;;;;;8.67;3.87;;;;;;;19.14;29.76;95594.09;4951403;28;20079;-66
2023/05/05 10:36:16;;;;;;;5.78;2.00;;;;;;;19.21;30.18;95592.13;4953438;28;20066;-65
2023/05/05 10:38:41;;;;;;;4.00;1.80;;;;;;;19.65;27.47;95585.53;4969961;28;20419;-65
2023/05/05 10:41:07;;;;;;;1.98;1.20;;;;;;;19.84;26.81;95583.50;4963809;28;20270;-66
2023/05/05 10:43:32;;;;;;;8.15;4.40;;;;;;;20.39;27.50;95581.34;4952339;28;20022;-65
2023/05/05 10:45:58;;;;;;;4.97;1.70;;;;;;;19.71;28.78;95588.09;4948743;28;20276;-65
2023/05/05 10:48:31;;;;;;;3.72;1.88;;;;;;;19.48;28.41;95575.47;4968701;28;20026;-67
2023/05/05 10:51:21;;;;;;;2.85;1.67;;;;;;;19.30;27.65;95584.50;4929162;28;20042;-67
2023/05/05 10:53:58;;;;;;;1.75;1.40;;;;;;;19.50;26.41;95559.00;4930569;28;20048;-67
2023/05/05 10:56:26;;;;;;;1.73;1.55;;;;;;;20.17;26.48;95560.41;4941504;28;20068;-67
2023/05/05 10:58:54;;;;;;;1.60;1.50;;;;;;;18.98;28.88;95571.31;4933742;28;20070;-67
2023/05/05 11:01:33;;;;;;;3.28;1.77;;;;;;;19.41;27.24;95561.28;4970045;28;20027;-66
2023/05/05 11:04:21;;;;;;;4.40;1.40;;;;;;;19.16;28.14;95557.72;4966393;28;20352;-67
2023/05/05 11:07:08;;;;;;;4.18;1.77;;;;;;;18.90;28.32;95550.94;4947196;28;20354;-67
2023/05/05 11:09:40;;;;;;;;;;;;;;;19.01;27.18;95539.31;4966438;28;20046;-67
2023/05/05 11:12:06;;;;;;;2.80;1.50;;;;;;;19.79;27.09;95535.59;4968829;28;19994;-82
2023/05/05 11:14:31;;;;;;;2.60;2.05;;;;;;;20.47;26.69;95531.47;4947709;28;20491;-82
2023/05/05 11:16:59;;;;;;;2.47;2.05;;;;;;;18.96;27.28;95520.31;4947959;28;20207;-79
2023/05/05 11:19:47;;;;;;;2.10;1.40;;;;;;;20.45;25.24;95525.47;4953919;28;20033;-81
2023/05/05 11:22:12;;;;;;;2.90;2.15;;;;;;;21.61;25.04;95516.97;4969964;28;20491;-81
2023/05/05 11:24:41;;;;;;;2.30;1.70;;;;;;;21.99;24.74;95524.50;4937068;28;20069;-82
2023/05/05 11:27:06;;;;;;;2.20;1.52;;;;;;;21.66;23.52;95518.94;4955234;28;20038;-81
2023/05/05 11:30:03;;;;;;;2.72;1.40;;;;;;;21.94;23.02;95502.72;4952468;28;20050;-81
2023/05/05 11:32:28;;;;;;;1.58;1.00;;;;;;;22.35;20.92;95513.16;4968677;28;20029;-82
2023/05/05 11:34:53;;;;;;;1.92;1.20;;;;;;;21.70;23.09;95509.22;4957115;28;20605;-82